Time;durP1;ratioP1;P1;durP2;ratioP2;P2;SDS_P1;SDS_P2;PMS_P1;PMS_P2;Temp;Humidity;BMP_temperature;BMP_pressure;BME280_temperature;BME280_humidity;BME280_pressure;Samples;Min_cycle;Max_cycle;Signal;HPM_P1;HPM_P2
2023/01/31 00:00:21;;;;;;;;;;;7.70;80.80;;;6.49;63.93;101383.22;6151436;23;19923;-77
2023/01/31 00:02:48;;;;;;;;;;;7.70;80.80;;;6.52;64.42;101380.22;6151604;23;19920;-77
2023/01/31 00:05:15;;;;;;;;;;;7.70;81.00;;;6.47;64.34;101371.94;6151211;23;19920;-77
2023/01/31 00:07:42;;;;;;;;;;;7.70;81.10;;;6.47;64.77;101366.63;6150535;23;20261;-77
2023/01/31 00:10:10;;;;;;;;;;;7.60;81.20;;;6.49;64.58;101380.56;6152042;23;19955;-77
2023/01/31 00:12:38;;;;;;;;;;;7.60;81.20;;;6.50;64.38;101379.56;6151760;23;19924;-77
2023/01/31 00:15:06;;;;;;;;;;;7.60;81.30;;;6.51;64.79;101378.56;6151091;23;19932;-77
2023/01/31 00:17:33;;;;;;;;;;;7.60;81.40;;;6.52;64.49;101374.94;6150376;23;19960;-77
2023/01/31 00:20:00;;;;;;;;;;;7.60;81.30;;;6.53;64.65;101368.63;6151687;23;19927;-77
2023/01/31 00:22:27;;;;;;;;;;;7.70;81.40;;;6.55;64.37;101373.78;6151056;23;19916;-77
2023/01/31 00:24:53;;;;;;;;;;;7.70;81.30;;;6.55;64.43;101381.75;6151607;23;19921;-77
2023/01/31 00:27:20;;;;;;;;;;;7.70;81.40;;;6.55;64.40;101379.09;6150455;23;19921;-77
2023/01/31 00:29:49;;;;;;;;;;;7.70;81.30;;;6.54;64.59;101383.56;6149451;23;19916;-77
2023/01/31 00:32:16;;;;;;;;;;;7.70;81.30;;;6.53;64.74;101376.56;6151598;23;19924;-77
2023/01/31 00:34:43;;;;;;;;;;;7.70;81.40;;;6.57;64.79;101372.63;6149992;23;19931;-77
2023/01/31 00:37:12;;;;;;;;;;;7.70;81.40;;;6.56;64.72;101378.91;6150538;23;19923;-77
2023/01/31 00:39:40;;;;;;;;;;;7.70;81.40;;;6.51;64.76;101375.94;6150572;23;19920;-77
2023/01/31 00:42:08;;;;;;;;;;;7.70;81.50;;;6.54;64.48;101378.25;6151452;23;20336;-77
2023/01/31 00:44:35;;;;;;;;;;;7.70;81.50;;;6.56;64.42;101386.03;6151055;23;20332;-77
2023/01/31 00:47:04;;;;;;;;;;;7.70;81.40;;;6.54;64.63;101375.63;6150568;23;20545;-77
2023/01/31 00:49:31;;;;;;;;;;;7.70;81.50;;;6.56;64.76;101368.31;6151696;23;19917;-77
2023/01/31 00:51:58;;;;;;;;;;;7.70;81.30;;;6.56;64.68;101370.97;6151776;23;20351;-77
2023/01/31 00:54:25;;;;;;;;;;;7.80;81.20;;;6.55;64.95;101361.38;6150044;23;19920;-77
2023/01/31 00:56:52;;;;;;;;;;;7.70;81.30;;;6.56;64.86;101360.38;6149585;23;19916;-77
2023/01/31 00:59:19;;;;;;;;;;;7.70;81.40;;;6.52;64.60;101371.44;6149714;23;19927;-77
2023/01/31 01:01:46;;;;;;;;;;;7.70;81.50;;;6.53;65.09;101373.09;6174374;23;19941;-77
2023/01/31 01:04:15;;;;;;;;;;;7.70;81.60;;;6.54;64.46;101380.06;6152688;23;20011;-77
2023/01/31 01:06:42;;;;;;;;;;;7.60;81.50;;;6.54;64.62;101374.75;6151844;23;20342;-77
2023/01/31 01:09:11;;;;;;;;;;;7.70;81.60;;;6.50;64.85;101381.41;6151367;23;19967;-77
2023/01/31 01:11:38;;;;;;;;;;;7.70;81.60;;;6.54;64.71;101388.00;6151396;23;19920;-77
2023/01/31 01:14:05;;;;;;;;;;;7.70;81.50;;;6.53;64.55;101376.56;6150275;23;20338;-77
2023/01/31 01:16:34;;;;;;;;;;;7.70;81.50;;;6.48;64.36;101376.25;6151927;23;19916;-77
2023/01/31 01:19:04;;;;;;;;;;;7.60;81.30;;;6.45;64.60;101381.88;6152870;23;19950;-77
2023/01/31 01:21:36;;;;;;;;;;;7.60;81.50;;;6.46;64.80;101375.59;6151357;23;19967;-77
2023/01/31 01:24:04;;;;;;;;;;;7.60;81.40;;;6.42;64.28;101372.41;6153300;23;19924;-77
2023/01/31 01:26:32;;;;;;;;;;;7.60;81.20;;;6.39;64.57;101378.06;6149632;23;19927;-77
2023/01/31 01:29:01;;;;;;;;;;;7.50;81.40;;;6.40;64.61;101373.59;6150142;23;19920;-77
2023/01/31 01:31:30;;;;;;;;;;;7.60;81.30;;;6.39;64.40;101372.75;6151452;23;20376;-77
2023/01/31 01:33:59;;;;;;;;;;;7.50;81.20;;;6.38;64.42;101362.31;6152945;23;19998;-77
2023/01/31 01:36:26;;;;;;;;;;;7.50;81.00;;;6.39;64.04;101359.50;6152281;23;19948;-77
2023/01/31 01:38:55;;;;;;;;;;;7.50;81.10;;;6.40;64.23;101361.16;6175859;23;20324;-77
2023/01/31 01:41:23;;;;;;;;;;;7.50;80.90;;;6.41;64.02;101372.59;6151040;23;19923;-77
2023/01/31 01:43:53;;;;;;;;;;;7.50;80.70;;;6.39;63.67;101369.25;6151413;23;19927;-77
2023/01/31 01:46:24;;;;;;;;;;;7.50;80.60;;;6.38;64.05;101357.00;6151098;23;19920;-77
2023/01/31 01:48:55;;;;;;;;;;;7.80;80.80;;;6.40;63.51;101355.03;6152700;23;20360;-77
2023/01/31 01:51:23;;;;;;;;;;;7.50;80.60;;;6.40;63.40;101355.03;6151435;23;19923;-77
2023/01/31 01:53:56;;;;;;;;;;;7.50;80.50;;;6.35;63.62;101362.66;6151311;23;20258;-77
2023/01/31 01:56:31;;;;;;;;;;;7.50;80.40;;;6.35;63.77;101360.00;6149545;23;19917;-77
2023/01/31 01:59:02;;;;;;;;;;;7.50;80.50;;;6.34;63.44;101355.66;6150661;23;20267;-77
2023/01/31 02:01:32;;;;;;;;;;;7.50;80.50;;;6.30;63.52;101370.25;6153152;23;20329;-77
2023/01/31 02:03:59;;;;;;;;;;;7.40;80.40;;;6.29;63.56;101363.28;6150384;23;19921;-77
2023/01/31 02:06:26;;;;;;;;;;;7.40;80.40;;;6.28;63.65;101366.91;6151818;23;19924;-77
2023/01/31 02:08:54;;;;;;;;;;;7.40;80.60;;;6.26;63.54;101366.25;6150745;23;19995;-77
2023/01/31 02:11:23;;;;;;;;;;;7.40;80.60;;;6.24;63.75;101376.16;6151236;23;20685;-77
2023/01/31 02:13:56;;;;;;;;;;;7.40;80.80;;;6.22;64.03;101367.56;6151728;23;20358;-77
2023/01/31 02:16:23;;;;;;;;;;;7.40;80.70;;;6.23;63.95;101369.22;6150778;23;20350;-77
2023/01/31 02:18:51;;;;;;;;;;;7.40;80.80;;;6.12;64.10;101376.47;6149717;23;19972;-77
2023/01/31 02:21:59;;;;;;;;;;;7.30;80.90;;;6.11;64.31;101374.81;6150619;23;19917;-77
2023/01/31 02:25:02;;;;;;;;;;;7.30;81.20;;;6.16;64.31;101383.09;6150772;23;19940;-77
2023/01/31 02:27:53;;;;;;;;;;;7.30;81.10;;;6.13;64.24;101386.06;6097946;23;19920;-77
2023/01/31 02:30:51;;;;;;;;;;;7.30;81.10;;;6.12;64.40;101388.88;6150844;23;20256;-77
2023/01/31 02:33:25;;;;;;;;;;;7.30;81.30;;;6.11;64.47;101384.59;6151001;23;19920;-77
2023/01/31 02:36:02;;;;;;;;;;;7.30;81.30;;;6.14;64.72;101382.41;6151482;23;19999;-77
2023/01/31 02:38:39;;;;;;;;;;;7.30;81.30;;;6.12;64.31;101373.81;6150251;23;20396;-77
2023/01/31 02:41:14;;;;;;;;;;;7.30;81.40;;;6.14;64.80;101379.78;6150962;23;19995;-77
2023/01/31 02:46:39;;;;;;;;;;;7.30;81.40;;;6.14;64.37;101371.00;6149120;23;19923;-77
2023/01/31 02:49:14;;;;;;;;;;;7.30;81.40;;;6.11;64.38;101372.16;6150782;23;19924;-77
2023/01/31 02:52:14;;;;;;;;;;;7.30;81.40;;;6.12;64.72;101380.94;6149661;23;19924;-77
2023/01/31 02:56:13;;;;;;;;;;;7.30;81.60;;;6.10;64.84;101377.59;6150683;23;19923;-77
2023/01/31 02:57:20;;;;;;;;;;;7.30;81.50;;;6.09;64.63;101382.06;6149392;23;19920;-77
2023/01/31 02:59:47;;;;;;;;;;;7.20;81.60;;;6.05;64.92;101380.75;6150467;23;19921;-77
2023/01/31 03:02:15;;;;;;;;;;;7.30;81.70;;;6.10;65.03;101385.53;6150247;23;19975;-77
2023/01/31 03:04:43;;;;;;;;;;;7.30;81.70;;;6.11;65.01;101388.06;6150866;23;19928;-76
2023/01/31 03:07:15;;;;;;;;;;;7.20;81.70;;;6.09;65.13;101379.41;6149396;23;20351;-77
2023/01/31 03:09:53;;;;;;;;;;;7.20;81.80;;;6.04;65.27;101367.66;6149563;23;19928;-76
2023/01/31 03:12:36;;;;;;;;;;;7.20;81.80;;;6.02;65.03;101375.75;6150654;23;19920;-77
2023/01/31 03:15:17;;;;;;;;;;;7.20;81.90;;;6.02;65.26;101369.66;6150082;23;20008;-76
2023/01/31 03:20:27;;;;;;;;;;;7.20;81.80;;;6.06;64.49;101353.28;6142697;23;19920;-78
2023/01/31 03:22:58;;;;;;;;;;;7.20;81.70;;;6.06;64.88;101353.28;6119568;23;19917;-78
2023/01/31 03:25:27;;;;;;;;;;;7.10;81.80;;;6.07;64.95;101348.81;6118350;23;20267;-78
2023/01/31 03:28:00;;;;;;;;;;;7.10;81.80;;;6.06;64.75;101347.16;6145768;23;20344;-78
2023/01/31 03:30:32;;;;;;;;;;;7.20;81.70;;;6.06;64.69;101336.56;6147476;23;20336;-79
2023/01/31 03:33:03;;;;;;;;;;;7.20;81.60;;;6.08;64.67;101331.94;6151159;23;19921;-79
2023/01/31 03:35:35;;;;;;;;;;;7.20;81.60;;;6.08;64.76;101330.09;6149901;23;19947;-78
2023/01/31 03:38:07;;;;;;;;;;;7.20;81.60;;;6.12;64.77;101334.09;6148820;23;19920;-79
2023/01/31 03:40:37;;;;;;;;;;;7.20;81.40;;;6.13;64.68;101332.28;6150220;23;19945;-79
2023/01/31 03:43:09;;;;;;;;;;;7.30;81.40;;;6.16;64.19;101329.31;6150284;23;19923;-79
2023/01/31 03:45:41;;;;;;;;;;;7.30;81.30;;;6.15;64.16;101317.91;6150044;23;19920;-79
2023/01/31 03:48:13;;;;;;;;;;;7.30;81.30;;;6.13;64.41;101317.22;6149313;23;19920;-79
2023/01/31 03:50:44;;;;;;;;;;;7.30;81.20;;;6.08;64.33;101313.38;6149491;23;19927;-79
2023/01/31 03:53:15;;;;;;;;;;;7.20;81.30;;;6.11;64.54;101313.91;6150356;23;19927;-79
2023/01/31 03:55:49;;;;;;;;;;;7.20;81.40;;;6.09;64.38;101313.22;6149615;23;19943;-79
2023/01/31 03:58:19;;;;;;;;;;;7.20;81.40;;;6.07;64.82;101301.97;6149534;23;20258;-79
2023/01/31 04:00:48;;;;;;;;;;;7.20;81.50;;;6.13;64.61;101311.09;6149576;23;19924;-79
2023/01/31 04:03:20;;;;;;;;;;;7.20;81.40;;;6.04;64.08;101290.88;6148781;23;20255;-79
2023/01/31 04:05:49;;;;;;;;;;;7.10;81.20;;;5.99;64.82;101288.69;6148631;23;20007;-79
2023/01/31 04:08:17;;;;;;;;;;;7.20;81.60;;;6.00;64.61;101287.69;6149273;23;19924;-79
2023/01/31 04:10:57;;;;;;;;;;;7.10;81.40;;;5.91;64.88;101286.00;6150223;23;20510;-79
2023/01/31 04:13:24;;;;;;;;;;;7.10;81.70;;;5.93;64.75;101289.34;6151298;23;19916;-79
2023/01/31 04:15:51;;;;;;;;;;;7.10;81.80;;;5.93;64.91;101284.06;6149757;23;20271;-79
2023/01/31 04:18:18;;;;;;;;;;;7.10;81.70;;;5.94;64.45;101297.13;6148262;23;20031;-79
2023/01/31 04:20:45;;;;;;;;;;;7.10;81.60;;;5.88;64.61;101299.56;6150787;23;19923;-79
2023/01/31 04:23:13;;;;;;;;;;;7.10;81.70;;;5.87;64.84;101298.72;6151914;23;19983;-79
2023/01/31 04:25:40;;;;;;;;;;;7.10;81.80;;;5.89;64.74;101290.63;6151208;23;19917;-79
2023/01/31 04:28:07;;;;;;;;;;;7.00;81.80;;;5.89;65.12;101294.09;6150592;23;19924;-79
2023/01/31 04:30:34;;;;;;;;;;;7.10;81.90;;;5.94;65.29;101296.28;6151319;23;19916;-79
2023/01/31 04:33:01;;;;;;;;;;;7.10;81.90;;;5.89;65.34;101298.56;6151671;23;20015;-79
2023/01/31 04:35:28;;;;;;;;;;;7.00;82.00;;;5.80;65.74;101299.50;6150927;23;19920;-79
2023/01/31 04:37:55;;;;;;;;;;;7.00;82.30;;;5.84;65.73;101303.50;6149953;23;20274;-79
2023/01/31 04:40:23;;;;;;;;;;;7.00;82.50;;;5.79;66.05;101300.50;6153156;23;20336;-79
2023/01/31 04:42:50;;;;;;;;;;;7.00;82.70;;;5.77;66.71;101297.22;6153335;23;19920;-79
2023/01/31 04:45:17;;;;;;;;;;;7.00;82.90;;;5.79;66.70;101295.22;6151450;23;20385;-79
2023/01/31 04:47:44;;;;;;;;;;;7.00;83.10;;;5.86;66.49;101304.19;6152058;23;20284;-78
2023/01/31 04:50:13;;;;;;;;;;;7.00;83.10;;;5.86;66.50;101293.59;6153016;23;20047;-79
2023/01/31 04:52:39;;;;;;;;;;;7.00;83.20;;;5.82;66.89;101292.25;6151188;23;19917;-79
2023/01/31 04:55:07;;;;;;;;;;;7.00;83.40;;;5.86;66.87;101289.13;6152532;23;19920;-79
2023/01/31 04:57:36;;;;;;;;;;;7.00;83.50;;;5.86;66.59;101283.84;6151999;23;20327;-78
2023/01/31 05:00:03;;;;;;;;;;;7.00;83.50;;;5.82;67.51;101276.38;6152736;23;19916;-79
2023/01/31 05:02:30;;;;;;;;;;;7.00;83.70;;;5.83;67.56;101278.84;6153463;23;19923;-79
2023/01/31 05:04:57;;;;;;;;;;;7.00;83.90;;;5.82;67.80;101281.69;6153329;23;19924;-82
2023/01/31 05:07:24;;;;;;;;;;;7.00;83.90;;;5.80;67.63;101273.88;6152324;23;20495;-81
2023/01/31 05:09:51;;;;;;;;;;;7.00;84.10;;;5.76;68.29;101274.34;6151763;23;19923;-80
2023/01/31 05:12:18;;;;;;;;;;;7.00;84.30;;;5.80;67.77;101268.59;6152555;23;19924;-81
2023/01/31 05:14:46;;;;;;;;;;;7.00;84.30;;;5.85;67.99;101257.50;6153027;23;19932;-83
2023/01/31 05:17:13;;;;;;;;;;;7.00;84.30;;;5.81;68.24;101258.84;6151905;23;20357;-83
2023/01/31 05:19:41;;;;;;;;;;;7.00;84.40;;;5.84;67.75;101248.75;6151455;23;19987;-82
2023/01/31 05:22:08;;;;;;;;;;;7.00;84.40;;;5.82;68.32;101256.03;6153103;23;19920;-83
2023/01/31 05:24:36;;;;;;;;;;;7.00;84.50;;;5.87;68.25;101252.91;6151209;23;19943;-83
2023/01/31 05:27:03;;;;;;;;;;;7.00;84.50;;;5.89;68.03;101257.03;6149213;23;19924;-81
2023/01/31 05:29:32;;;;;;;;;;;7.00;84.50;;;5.91;67.82;101241.88;6152397;23;19917;-82
2023/01/31 05:32:01;;;;;;;;;;;7.00;84.40;;;5.93;68.12;101249.63;6153203;23;19927;-82
2023/01/31 05:34:31;;;;;;;;;;;7.00;84.50;;;5.88;67.94;101244.78;6152559;23;19927;-82
2023/01/31 05:36:58;;;;;;;;;;;7.00;84.50;;;5.86;68.33;101246.78;6152139;23;19921;-82
2023/01/31 05:39:25;;;;;;;;;;;7.00;84.70;;;5.74;68.51;101242.75;6150903;23;19931;-85
2023/01/31 05:41:53;;;;;;;;;;;7.00;84.90;;;5.72;68.91;101246.56;6150018;23;19920;-85
2023/01/31 05:44:20;;;;;;;;;;;6.90;85.00;;;5.74;68.73;101242.75;6149233;23;19924;-85
2023/01/31 05:46:47;;;;;;;;;;;6.90;85.10;;;5.73;68.56;101240.28;6151192;23;19916;-84
2023/01/31 05:49:15;;;;;;;;;;;6.90;85.10;;;5.67;68.54;101236.47;6152427;23;20024;-84
2023/01/31 05:51:42;;;;;;;;;;;6.90;85.10;;;5.66;68.94;101240.94;6152533;23;19940;-84
2023/01/31 05:54:11;;;;;;;;;;;6.90;85.20;;;5.71;68.60;101240.47;6152742;23;19928;-85
2023/01/31 05:56:38;;;;;;;;;;;6.90;85.10;;;5.74;68.89;101241.94;6151047;23;20003;-85
2023/01/31 05:59:05;;;;;;;;;;;7.00;85.20;;;5.74;68.31;101234.81;6150558;23;20392;-85
2023/01/31 06:01:32;;;;;;;;;;;6.90;85.00;;;5.73;68.59;101235.00;6152690;23;19927;-84
2023/01/31 06:03:59;;;;;;;;;;;6.90;85.00;;;5.75;68.08;101227.72;6152806;23;20004;-85
2023/01/31 06:06:31;;;;;;;;;;;6.90;84.90;;;5.74;68.51;101211.00;6148241;23;20004;-84
2023/01/31 06:08:58;;;;;;;;;;;6.90;84.90;;;5.79;68.16;101199.94;6149119;23;19959;-85
2023/01/31 06:11:25;;;;;;;;;;;6.90;84.70;;;5.79;67.81;101202.59;6151296;23;19921;-85
2023/01/31 06:13:56;;;;;;;;;;;6.90;84.60;;;5.77;68.26;101194.00;6152299;23;19952;-84
2023/01/31 06:16:23;;;;;;;;;;;6.90;84.60;;;5.69;68.29;101194.78;6151041;23;19935;-85
2023/01/31 06:18:50;;;;;;;;;;;6.90;84.70;;;5.63;68.55;101198.91;6151582;23;19921;-86
2023/01/31 06:21:17;;;;;;;;;;;6.80;84.70;;;5.66;68.72;101209.19;6152369;23;19916;-86
2023/01/31 06:23:46;;;;;;;;;;;6.90;85.00;;;5.63;68.59;101211.31;6148777;23;20618;-86
2023/01/31 06:26:14;;;;;;;;;;;6.80;85.00;;;5.62;68.75;101213.13;6151575;23;20518;-84
2023/01/31 06:28:41;;;;;;;;;;;7.10;85.30;;;5.64;68.48;101218.25;6151463;23;20020;-84
2023/01/31 06:31:08;;;;;;;;;;;6.80;85.10;;;5.68;68.98;101215.13;6152017;23;19928;-84
2023/01/31 06:33:35;;;;;;;;;;;6.90;85.40;;;5.69;68.65;101216.78;6151793;23;20343;-82
2023/01/31 06:36:02;;;;;;;;;;;6.80;85.30;;;5.74;68.65;101211.00;6150417;23;19920;-82
2023/01/31 06:38:29;;;;;;;;;;;6.80;84.90;;;5.66;68.84;101222.41;6152146;23;19944;-82
2023/01/31 06:40:58;;;;;;;;;;;6.80;85.10;;;5.68;69.11;101220.41;6151523;23;19916;-82
2023/01/31 06:43:25;;;;;;;;;;;6.80;85.20;;;5.68;68.50;101219.59;6152015;23;20251;-82
2023/01/31 06:45:52;;;;;;;;;;;6.90;85.20;;;5.68;68.85;101224.88;6150429;23;20300;-82
2023/01/31 06:48:19;;;;;;;;;;;6.90;85.30;;;5.70;68.57;101225.53;6151459;23;19943;-82
2023/01/31 06:50:46;;;;;;;;;;;7.00;85.20;;;5.77;68.54;101225.75;6151246;23;19984;-82
2023/01/31 06:53:13;;;;;;;;;;;6.90;85.00;;;5.79;68.32;101221.09;6149092;23;19920;-82
2023/01/31 06:55:40;;;;;;;;;;;6.90;84.80;;;5.79;68.24;101218.47;6152205;23;19920;-82
2023/01/31 06:58:09;;;;;;;;;;;6.90;84.90;;;5.78;68.21;101228.22;6151254;23;19920;-82
2023/01/31 07:00:36;;;;;;;;;;;6.90;84.90;;;5.80;68.29;101223.59;6151894;23;19938;-82
2023/01/31 07:03:03;;;;;;;;;;;6.90;84.80;;;5.79;68.26;101221.09;6150561;23;20588;-82
2023/01/31 07:05:30;;;;;;;;;;;6.90;84.90;;;5.84;68.08;101221.44;6148732;23;19920;-82
2023/01/31 07:07:57;;;;;;;;;;;7.00;84.90;;;5.86;67.99;101219.50;6150698;23;20248;-82
2023/01/31 07:10:24;;;;;;;;;;;7.00;84.70;;;5.84;68.09;101211.69;6150277;23;19920;-82
2023/01/31 07:12:51;;;;;;;;;;;7.00;84.50;;;5.75;68.20;101203.88;6152349;23;19970;-82
2023/01/31 07:15:19;;;;;;;;;;;6.90;84.70;;;5.76;68.36;101222.28;6152088;23;19924;-82
2023/01/31 07:17:46;;;;;;;;;;;6.90;84.90;;;5.80;68.45;101236.81;6150248;23;19927;-82
2023/01/31 07:20:13;;;;;;;;;;;6.90;84.90;;;5.82;68.10;101232.22;6151612;23;19921;-82
2023/01/31 07:22:40;;;;;;;;;;;7.00;84.80;;;5.80;68.50;101225.41;6149518;23;19921;-82
2023/01/31 07:25:08;;;;;;;;;;;7.00;84.70;;;5.80;68.16;101220.13;6151724;23;19917;-82
2023/01/31 07:27:35;;;;;;;;;;;7.00;84.70;;;5.82;68.42;101221.63;6149722;23;19920;-82
2023/01/31 07:30:02;;;;;;;;;;;7.00;84.70;;;5.80;68.23;101220.94;6151463;23;19917;-82
2023/01/31 07:32:31;;;;;;;;;;;7.00;84.60;;;5.81;67.92;101227.09;6151873;23;19924;-82
2023/01/31 07:34:58;;;;;;;;;;;7.00;84.70;;;5.81;68.24;101221.78;6151552;23;19924;-82
2023/01/31 07:37:25;;;;;;;;;;;6.90;84.70;;;5.82;68.26;101221.63;6150326;23;19923;-83
2023/01/31 07:39:52;;;;;;;;;;;6.90;84.90;;;5.84;68.12;101216.16;6151197;23;19916;-82
2023/01/31 07:42:19;;;;;;;;;;;7.00;84.80;;;5.79;68.21;101223.75;6151369;23;19955;-82
2023/01/31 07:44:45;;;;;;;;;;;7.00;84.80;;;5.82;68.20;101221.63;6151744;23;19920;-82
2023/01/31 07:47:12;;;;;;;;;;;7.00;84.50;;;5.80;68.17;101220.13;6150556;23;19955;-82
2023/01/31 07:49:41;;;;;;;;;;;6.90;84.60;;;5.80;68.24;101215.66;6151138;23;19924;-82
2023/01/31 07:52:08;;;;;;;;;;;7.10;84.90;;;5.82;67.99;101213.69;6151828;23;19923;-82
2023/01/31 07:54:35;;;;;;;;;;;7.00;84.70;;;5.76;68.11;101197.59;6150846;23;19917;-82
2023/01/31 07:57:02;;;;;;;;;;;6.90;84.70;;;5.74;68.43;101191.66;6150774;23;19917;-83
2023/01/31 07:59:29;;;;;;;;;;;6.90;84.90;;;5.74;68.48;101194.31;6147891;23;19920;-83
2023/01/31 08:04:41;;;;;;;;;;;6.90;85.00;;;5.73;68.43;101190.81;6152245;23;19931;-82
2023/01/31 08:07:09;;;;;;;;;;;6.90;85.10;;;5.77;68.30;101199.28;6150077;23;19924;-81
2023/01/31 08:09:37;;;;;;;;;;;6.90;84.90;;;5.77;68.54;101186.88;6151204;23;19921;-81
2023/01/31 08:12:05;;;;;;;;;;;7.00;84.90;;;5.77;67.99;101189.53;6150588;23;19920;-82
2023/01/31 08:14:32;;;;;;;;;;;6.90;84.80;;;5.78;68.20;101183.22;6153440;23;19916;-82
2023/01/31 08:16:59;;;;;;;;;;;6.90;85.00;;;5.83;68.44;101180.94;6152242;23;19948;-81
2023/01/31 08:19:26;;;;;;;;;;;7.00;85.10;;;5.82;68.23;101168.69;6151533;23;19954;-81
2023/01/31 08:21:54;;;;;;;;;;;7.00;85.00;;;5.83;68.53;101172.97;6151632;23;19967;-81
2023/01/31 08:24:21;;;;;;;;;;;7.00;85.00;;;5.82;68.59;101176.63;6150881;23;20323;-81
2023/01/31 08:26:48;;;;;;;;;;;7.00;85.00;;;5.85;68.35;101171.00;6152604;23;19924;-81
2023/01/31 08:29:15;;;;;;;;;;;7.00;84.90;;;5.83;68.33;101175.63;6153420;23;20413;-81
2023/01/31 08:31:42;;;;;;;;;;;7.00;84.90;;;5.86;68.69;101175.31;6150762;23;19923;-81
2023/01/31 08:34:11;;;;;;;;;;;7.00;85.30;;;5.88;69.02;101183.91;6153013;23;19925;-82
2023/01/31 08:36:38;;;;;;;;;;;7.00;85.60;;;5.90;69.31;101178.44;6152152;23;19917;-81
2023/01/31 08:39:06;;;;;;;;;;;7.00;85.90;;;5.90;69.68;101179.31;6152895;23;19928;-81
2023/01/31 08:41:34;;;;;;;;;;;7.00;86.30;;;5.93;70.29;101171.03;6152960;23;19923;-81
2023/01/31 08:44:02;;;;;;;;;;;7.00;86.70;;;5.92;70.95;101182.63;6152017;23;20352;-80
2023/01/31 08:46:31;;;;;;;;;;;7.00;87.10;;;5.98;71.18;101188.25;6149546;23;19927;-81
2023/01/31 08:48:58;;;;;;;;;;;7.10;87.40;;;5.94;71.63;101179.81;6152201;23;19921;-83
2023/01/31 08:51:25;;;;;;;;;;;7.00;87.70;;;5.89;71.81;101177.63;6152249;23;19916;-84
2023/01/31 08:53:52;;;;;;;;;;;7.00;88.00;;;5.92;71.90;101165.91;6151516;23;20347;-84
2023/01/31 08:56:24;;;;;;;;;;;7.00;88.10;;;5.90;72.19;101155.47;6151946;23;20169;-84
2023/01/31 08:58:52;;;;;;;;;;;7.00;88.30;;;5.89;72.47;101152.97;6153497;23;19947;-84
2023/01/31 09:01:20;;;;;;;;;;;7.00;88.40;;;5.89;72.96;101151.16;6148562;23;19916;-83
2023/01/31 09:03:49;;;;;;;;;;;7.10;88.80;;;5.86;73.13;101140.91;6151742;23;19950;-85
2023/01/31 09:06:17;;;;;;;;;;;7.00;89.00;;;5.83;74.08;101130.63;6150092;23;19920;-84
2023/01/31 09:08:44;;;;;;;;;;;7.00;89.20;;;5.82;73.67;101121.03;6151428;23;19936;-84
2023/01/31 09:11:15;;;;;;;;;;;7.00;89.10;;;5.85;74.10;101123.34;6153146;23;19924;-84
2023/01/31 09:13:45;;;;;;;;;;;7.00;89.30;;;5.89;74.13;101121.19;6152237;23;19923;-83
2023/01/31 09:16:13;;;;;;;;;;;7.00;89.50;;;5.76;74.40;101123.50;6151170;23;19952;-83
2023/01/31 09:18:41;;;;;;;;;;;7.10;90.00;;;5.77;74.56;101120.72;6150805;23;19928;-83
2023/01/31 09:21:10;;;;;;;;;;;7.00;90.00;;;5.86;74.80;101121.56;6150618;23;20288;-83
2023/01/31 09:23:37;;;;;;;;;;;7.00;90.20;;;5.86;74.48;101119.72;6152336;23;19948;-84
2023/01/31 09:26:05;;;;;;;;;;;7.00;90.40;;;5.83;75.40;101122.69;6150702;23;19999;-83
2023/01/31 09:28:32;;;;;;;;;;;7.00;90.60;;;5.85;75.49;101110.09;6151642;23;20008;-83
2023/01/31 09:31:04;;;;;;;;;;;7.00;90.60;;;5.88;75.57;101109.78;6149606;23;19917;-83
2023/01/31 09:33:32;;;;;;;;;;;7.00;90.80;;;5.90;75.69;101106.97;6151403;23;19921;-83
2023/01/31 09:36:01;;;;;;;;;;;7.00;91.20;;;5.93;76.11;101114.63;6148738;23;19916;-86
2023/01/31 09:38:28;;;;;;;;;;;7.10;91.20;;;5.99;75.96;101098.06;6150583;23;19923;-84
2023/01/31 09:40:57;;;;;;;;;;;7.10;91.00;;;5.97;75.46;101107.19;6152120;23;19954;-83
2023/01/31 09:43:27;;;;;;;;;;;7.10;90.80;;;5.91;75.49;101108.66;6151611;23;19944;-83
2023/01/31 09:45:56;;;;;;;;;;;7.00;90.80;;;5.85;75.62;101104.81;6152521;23;19917;-83
2023/01/31 09:48:28;;;;;;;;;;;7.00;90.90;;;5.83;75.96;101095.41;6149529;23;20324;-83
2023/01/31 09:50:58;;;;;;;;;;;7.00;91.00;;;5.85;76.17;101104.00;6152233;23;20342;-83
2023/01/31 09:53:29;;;;;;;;;;;7.00;91.10;;;5.87;76.01;101102.03;6151020;23;19917;-84
2023/01/31 09:56:01;;;;;;;;;;;7.00;91.10;;;5.86;76.06;101097.72;6151199;23;20407;-84
2023/01/31 09:58:33;;;;;;;;;;;7.10;91.10;;;5.87;76.22;101105.50;6152828;23;19923;-84
2023/01/31 10:01:06;;;;;;;;;;;7.00;91.00;;;5.86;76.23;101087.97;6152650;23;20722;-83
2023/01/31 10:03:45;;;;;;;;;;;7.00;91.40;;;5.82;76.84;101084.00;6151917;23;19948;-83
2023/01/31 10:06:18;;;;;;;;;;;7.00;91.60;;;5.79;77.69;101081.66;6151840;23;19920;-83
2023/01/31 10:08:53;;;;;;;;;;;7.10;92.40;;;5.78;78.11;101089.78;6150136;23;20590;-83
2023/01/31 10:11:30;;;;;;;;;;;7.00;92.60;;;5.76;78.60;101097.88;6151641;23;19943;-83
2023/01/31 10:14:01;;;;;;;;;;;7.00;92.90;;;5.82;78.41;101084.00;6150895;23;19935;-83
2023/01/31 10:16:30;;;;;;;;;;;7.00;92.90;;;5.85;78.07;101091.56;6151570;23;20007;-83
2023/01/31 10:19:02;;;;;;;;;;;7.00;92.60;;;5.92;77.96;101082.03;6151676;23;19920;-83
2023/01/31 10:21:32;;;;;;;;;;;7.10;92.90;;;5.97;78.20;101065.66;6152804;23;19916;-83
2023/01/31 10:24:04;;;;;;;;;;;7.10;92.80;;;5.99;77.99;101058.34;6151490;23;19917;-83
2023/01/31 10:26:34;;;;;;;;;;;7.10;92.90;;;5.98;78.35;101047.94;6150643;23;19927;-83
2023/01/31 10:29:05;;;;;;;;;;;7.10;92.80;;;6.03;77.82;101038.50;6152454;23;19967;-83
2023/01/31 10:31:35;;;;;;;;;;;7.10;92.80;;;6.05;78.02;101033.03;6150932;23;19966;-84
2023/01/31 10:34:09;;;;;;;;;;;7.20;92.90;;;5.99;78.20;101033.72;6152291;23;20386;-83
2023/01/31 10:36:40;;;;;;;;;;;7.10;93.20;;;5.97;78.66;101025.94;6151330;23;20307;-83
2023/01/31 10:39:15;;;;;;;;;;;7.10;93.30;;;5.96;78.93;101037.53;6152133;23;20003;-83
2023/01/31 10:41:52;;;;;;;;;;;7.10;93.40;;;5.97;78.85;101028.59;6151321;23;20384;-83
2023/01/31 10:44:23;;;;;;;;;;;7.10;93.60;;;6.02;78.96;101028.91;6149230;23;19944;-83
2023/01/31 10:46:52;;;;;;;;;;;7.10;93.40;;;6.03;78.97;101030.56;6151360;23;19995;-83
2023/01/31 10:49:23;;;;;;;;;;;7.10;93.80;;;6.01;79.48;101029.91;6152273;23;19932;-83
2023/01/31 10:52:03;;;;;;;;;;;7.10;93.80;;;6.02;79.42;101026.25;6150894;23;19952;-84
2023/01/31 10:54:40;;;;;;;;;;;7.10;93.80;;;6.06;79.43;101032.06;6149054;23;20335;-84
2023/01/31 10:57:07;;;;;;;;;;;7.20;94.00;;;6.06;79.42;101032.88;6151029;23;19967;-83
2023/01/31 10:59:36;;;;;;;;;;;7.20;94.10;;;6.06;79.29;101029.41;6150715;23;19923;-83
2023/01/31 11:02:03;;;;;;;;;;;7.20;93.80;;;5.98;79.78;101032.88;6152040;23;19979;-83
2023/01/31 11:04:35;;;;;;;;;;;7.20;93.80;;;5.99;79.36;101018.66;6151970;23;19920;-84
2023/01/31 11:07:02;;;;;;;;;;;7.20;93.60;;;6.03;79.66;101019.97;6150842;23;19998;-84
2023/01/31 11:09:32;;;;;;;;;;;7.20;93.80;;;6.09;79.12;101018.47;6152263;23;19917;-83
2023/01/31 11:12:01;;;;;;;;;;;7.20;93.60;;;6.12;79.10;101005.72;6150605;23;19995;-83
2023/01/31 11:14:29;;;;;;;;;;;7.20;93.80;;;6.12;79.33;101004.91;6151561;23;19927;-83
2023/01/31 11:16:59;;;;;;;;;;;7.20;93.80;;;6.14;79.20;101009.00;6150397;23;19920;-84
2023/01/31 11:19:34;;;;;;;;;;;7.30;93.60;;;6.15;79.22;101005.41;6151349;23;19920;-84
2023/01/31 11:22:02;;;;;;;;;;;7.30;93.80;;;6.12;79.26;100992.47;6152362;23;19921;-84
2023/01/31 11:24:30;;;;;;;;;;;7.30;93.70;;;6.12;79.17;100992.47;6151658;23;19967;-84
2023/01/31 11:27:00;;;;;;;;;;;7.30;93.80;;;6.14;79.34;100995.78;6150764;23;19920;-84
2023/01/31 11:29:29;;;;;;;;;;;7.30;93.80;;;6.14;79.17;100993.13;6151481;23;19952;-84
2023/01/31 11:31:58;;;;;;;;;;;7.30;93.70;;;6.13;79.54;100993.31;6152199;23;19924;-83
2023/01/31 11:34:28;;;;;;;;;;;7.30;93.90;;;6.15;79.43;100986.88;6150712;23;19916;-84
2023/01/31 11:37:03;;;;;;;;;;;7.30;93.80;;;6.17;79.02;100989.34;6151086;23;19938;-84
2023/01/31 11:39:31;;;;;;;;;;;7.30;93.60;;;6.17;79.33;100979.56;6152084;23;19923;-83
2023/01/31 11:42:05;;;;;;;;;;;7.30;93.90;;;6.23;79.14;100985.16;6151394;23;19927;-84